createdAt,value
2018-06-30T00:00:26.521Z,13.6
2018-06-30T00:01:30.501Z,13.3
2018-06-30T00:02:31.471Z,13.3
2018-06-30T00:03:34.795Z,13.3
2018-06-30T00:04:29.911Z,13.1
2018-06-30T00:05:33.670Z,13.1
2018-06-30T00:07:32.945Z,13.2
2018-06-30T00:08:27.965Z,13.2
2018-06-30T00:09:34.538Z,13.2
2018-06-30T00:10:30.902Z,13.2
2018-06-30T00:11:30.181Z,13.2
2018-06-30T00:12:39.686Z,13.2
2018-06-30T00:13:27.559Z,13.2
2018-06-30T00:14:26.588Z,13.2
2018-06-30T00:15:28.054Z,13.2
2018-06-30T00:16:47.669Z,13.0
2018-06-30T00:17:34.221Z,13.0
2018-06-30T00:18:32.508Z,13.0
2018-06-30T00:19:34.826Z,12.9
2018-06-30T00:20:30.726Z,12.9
2018-06-30T00:21:30.873Z,12.8
2018-06-30T00:22:32.472Z,12.8
2018-06-30T00:23:37.193Z,12.8
2018-06-30T00:24:26.715Z,12.8
2018-06-30T00:25:27.563Z,12.8
2018-06-30T00:26:27.974Z,12.8
2018-06-30T00:27:26.791Z,12.8
2018-06-30T00:28:26.599Z,12.8
2018-06-30T00:29:36.828Z,12.8
2018-06-30T00:30:26.595Z,12.8
2018-06-30T00:31:26.671Z,12.8
2018-06-30T00:32:26.664Z,13.0
2018-06-30T00:33:26.552Z,13.0
2018-06-30T00:34:26.657Z,13.0
2018-06-30T00:35:26.667Z,13.0
2018-06-30T00:36:50.096Z,13.0
2018-06-30T00:37:26.849Z,13.1
2018-06-30T00:38:31.575Z,13.1
2018-06-30T00:41:32.592Z,13.1
2018-06-30T00:42:32.889Z,12.9
2018-06-30T00:43:34.008Z,12.9
2018-06-30T00:44:32.756Z,12.8
2018-06-30T00:45:32.589Z,12.8
2018-06-30T00:46:32.668Z,12.8
2018-06-30T00:47:45.740Z,12.8
2018-06-30T00:48:36.070Z,12.8
2018-06-30T00:49:32.948Z,12.7
2018-06-30T00:50:32.843Z,12.7
2018-06-30T00:52:56.764Z,12.6
2018-06-30T00:53:46.939Z,12.6
2018-06-30T00:54:46.083Z,12.5
2018-06-30T00:55:45.425Z,12.5
2018-06-30T00:56:53.941Z,12.5
2018-06-30T00:57:46.821Z,12.4
2018-06-30T00:59:12.915Z,12.4
2018-06-30T00:59:52.988Z,12.4
2018-06-30T01:01:56.067Z,12.4
2018-06-30T01:02:51.441Z,12.2
2018-06-30T01:04:04.993Z,12.2
2018-06-30T01:04:45.616Z,12.2
2018-06-30T01:05:54.899Z,12.2
2018-06-30T01:06:54.335Z,12.2
2018-06-30T01:08:08.410Z,12.1
2018-06-30T01:09:57.423Z,12.0
2018-06-30T01:11:03.054Z,12.0
2018-06-30T01:11:51.917Z,12.0
2018-06-30T01:12:47.518Z,12.0
2018-06-30T01:13:45.513Z,12.0
2018-06-30T01:14:48.306Z,12.0
2018-06-30T01:15:55.843Z,12.0
2018-06-30T01:16:45.604Z,12.0
2018-06-30T01:17:47.937Z,12.1
2018-06-30T01:18:45.715Z,12.1
2018-06-30T01:21:27.754Z,12.1
2018-06-30T01:21:42.057Z,12.1
2018-06-30T01:22:38.227Z,12.2
2018-06-30T01:23:41.228Z,12.2
2018-06-30T01:24:38.246Z,12.2
2018-06-30T01:25:38.278Z,12.2
2018-06-30T01:27:38.785Z,12.2
2018-06-30T01:29:38.249Z,12.2
2018-06-30T01:31:51.612Z,12.0
2018-06-30T01:32:50.808Z,12.0
2018-06-30T01:33:50.830Z,12.0
2018-06-30T01:34:50.768Z,12.0
2018-06-30T01:35:50.994Z,12.0
2018-06-30T01:36:50.964Z,12.0
2018-06-30T01:37:59.558Z,11.9
2018-06-30T01:38:57.156Z,11.9
2018-06-30T01:39:54.231Z,11.9
2018-06-30T01:40:56.910Z,11.9
2018-06-30T01:42:08.975Z,11.9
2018-06-30T01:42:53.129Z,11.9
2018-06-30T01:43:51.037Z,11.9
2018-06-30T01:44:51.522Z,11.9
2018-06-30T01:45:50.963Z,11.9
2018-06-30T01:46:51.563Z,11.9
2018-06-30T01:47:51.516Z,12.1
2018-06-30T01:48:51.161Z,12.1
2018-06-30T01:49:51.913Z,12.1
2018-06-30T01:50:50.941Z,12.0
2018-06-30T01:53:54.937Z,12.0
2018-06-30T01:54:55.443Z,12.0
2018-06-30T01:55:59.966Z,12.0
2018-06-30T01:56:58.201Z,12.0
2018-06-30T01:57:58.547Z,12.0
2018-06-30T01:59:02.278Z,12.0
2018-06-30T01:59:55.662Z,12.0
2018-06-30T02:00:59.448Z,12.0
2018-06-30T02:02:01.008Z,12.0
2018-06-30T02:03:01.862Z,12.0
2018-06-30T02:05:17.999Z,11.8
2018-06-30T02:06:13.562Z,11.7
2018-06-30T02:08:14.965Z,11.7
2018-06-30T02:09:09.758Z,11.6
2018-06-30T02:10:11.000Z,11.6
2018-06-30T02:11:17.817Z,11.6
2018-06-30T02:12:09.698Z,11.6
2018-06-30T02:14:28.550Z,11.6
2018-06-30T02:15:11.224Z,11.6
2018-06-30T02:16:13.874Z,11.6
2018-06-30T02:17:15.852Z,11.6
2018-06-30T02:18:12.062Z,11.6
2018-06-30T02:19:10.029Z,11.6
2018-06-30T02:20:12.558Z,11.6
2018-06-30T02:23:14.087Z,11.4
2018-06-30T02:24:14.564Z,11.4
2018-06-30T02:26:30.090Z,11.3
2018-06-30T02:27:22.986Z,11.3
2018-06-30T02:28:23.163Z,11.3
2018-06-30T02:29:21.248Z,11.4
2018-06-30T02:30:21.315Z,11.4
2018-06-30T02:31:24.359Z,12.0
2018-06-30T02:32:21.340Z,12.0
2018-06-30T02:33:21.240Z,12.0
2018-06-30T02:34:21.392Z,12.1
2018-06-30T02:35:21.435Z,12.1
2018-06-30T02:36:37.366Z,12.0
2018-06-30T02:37:21.871Z,12.0
2018-06-30T02:38:22.737Z,12.0
2018-06-30T02:39:21.365Z,11.8
2018-06-30T02:40:23.909Z,11.8
2018-06-30T02:41:21.330Z,11.8
2018-06-30T02:42:21.829Z,11.8
2018-06-30T02:43:21.448Z,11.8
2018-06-30T02:44:22.785Z,11.4
2018-06-30T02:45:21.174Z,11.4
2018-06-30T02:46:21.814Z,11.3
2018-06-30T02:47:21.411Z,11.3
2018-06-30T02:48:21.916Z,11.3
2018-06-30T02:49:21.356Z,11.2
2018-06-30T02:50:21.260Z,11.2
2018-06-30T02:51:21.279Z,11.2
2018-06-30T02:52:22.480Z,11.3
2018-06-30T02:53:21.521Z,11.3
2018-06-30T02:54:21.940Z,11.5
2018-06-30T02:55:22.260Z,11.5
2018-06-30T02:56:21.939Z,11.5
2018-06-30T02:57:21.882Z,11.6
2018-06-30T02:58:21.461Z,11.6
2018-06-30T02:59:22.633Z,11.4
2018-06-30T03:00:21.372Z,11.4
2018-06-30T03:01:21.234Z,11.4
2018-06-30T03:02:21.386Z,11.4
2018-06-30T03:03:21.380Z,11.4
2018-06-30T03:04:21.343Z,11.3
2018-06-30T03:05:21.257Z,11.3
2018-06-30T03:06:21.442Z,11.3
2018-06-30T03:07:21.301Z,11.2
2018-06-30T03:08:21.356Z,11.2
2018-06-30T03:09:21.341Z,11.2
2018-06-30T03:10:22.194Z,11.2
2018-06-30T03:11:21.414Z,11.2
2018-06-30T03:12:21.385Z,11.2
2018-06-30T03:15:02.492Z,11.2
2018-06-30T03:15:14.802Z,11.2
2018-06-30T03:16:19.686Z,10.8
2018-06-30T03:17:14.529Z,10.6
2018-06-30T03:18:15.122Z,10.6
2018-06-30T03:19:14.565Z,10.6
2018-06-30T03:20:15.331Z,10.6
2018-06-30T03:21:14.602Z,10.6
2018-06-30T03:22:15.212Z,10.6
2018-06-30T03:23:15.229Z,10.6
2018-06-30T03:24:19.179Z,10.6
2018-06-30T03:25:14.526Z,11.1
2018-06-30T03:26:14.503Z,11.1
2018-06-30T03:27:15.896Z,10.8
2018-06-30T03:28:14.609Z,10.8
2018-06-30T03:29:14.516Z,10.8
2018-06-30T03:30:14.561Z,10.7
2018-06-30T03:31:16.750Z,10.7
2018-06-30T03:32:15.135Z,10.8
2018-06-30T03:33:14.576Z,10.8
2018-06-30T03:34:14.672Z,10.8
2018-06-30T03:35:15.223Z,11.0
2018-06-30T03:36:14.509Z,11.0
2018-06-30T03:37:14.661Z,11.0
2018-06-30T03:38:14.488Z,11.0
2018-06-30T03:39:14.445Z,11.0
2018-06-30T03:40:14.468Z,11.2
2018-06-30T03:41:30.828Z,11.2
2018-06-30T03:42:15.185Z,11.2
2018-06-30T03:43:14.508Z,11.2
2018-06-30T03:44:15.175Z,11.2
2018-06-30T03:45:14.666Z,11.0
2018-06-30T03:46:14.589Z,11.0
2018-06-30T03:47:15.368Z,11.0
2018-06-30T03:48:14.480Z,10.9
2018-06-30T03:49:14.622Z,10.9
2018-06-30T03:50:14.563Z,11.0
2018-06-30T03:51:15.309Z,11.0
2018-06-30T03:52:14.608Z,11.0
2018-06-30T03:53:15.317Z,10.9
2018-06-30T03:54:14.558Z,10.9
2018-06-30T03:55:14.566Z,10.9
2018-06-30T03:56:14.729Z,10.9
2018-06-30T03:58:14.603Z,10.8
2018-06-30T03:59:15.203Z,10.8
2018-06-30T04:00:14.653Z,10.8
2018-06-30T04:01:15.645Z,10.8
2018-06-30T04:02:14.615Z,10.8
2018-06-30T04:03:14.534Z,10.8
2018-06-30T04:04:14.604Z,10.8
2018-06-30T04:05:15.324Z,10.8
2018-06-30T04:06:14.763Z,10.8
2018-06-30T04:07:14.597Z,10.8
2018-06-30T04:08:14.536Z,10.8
2018-06-30T04:09:23.238Z,10.8
2018-06-30T04:10:15.196Z,10.8
2018-06-30T04:11:15.090Z,10.8
2018-06-30T04:12:14.635Z,10.8
2018-06-30T04:13:14.500Z,11.2
2018-06-30T04:14:14.589Z,11.2
2018-06-30T04:15:14.559Z,11.2
2018-06-30T04:16:14.547Z,11.2
2018-06-30T04:17:14.595Z,11.2
2018-06-30T04:18:14.604Z,11.2
2018-06-30T04:19:14.640Z,11.2
2018-06-30T04:20:14.588Z,11.2
2018-06-30T04:23:23.788Z,11.2
2018-06-30T04:24:24.796Z,11.2
2018-06-30T04:25:24.819Z,11.2
2018-06-30T04:26:24.846Z,11.3
2018-06-30T04:27:24.829Z,11.3
2018-06-30T04:28:24.832Z,11.4
2018-06-30T04:29:24.720Z,11.4
2018-06-30T04:30:25.347Z,11.4
2018-06-30T04:31:24.910Z,11.5
2018-06-30T04:32:24.783Z,11.5
2018-06-30T04:33:25.547Z,11.6
2018-06-30T04:34:24.744Z,11.6
2018-06-30T04:35:24.777Z,11.6
2018-06-30T04:36:24.853Z,11.8
2018-06-30T04:37:24.720Z,11.8
2018-06-30T04:38:24.897Z,12.1
2018-06-30T04:39:24.859Z,12.1
2018-06-30T04:40:25.717Z,12.1
2018-06-30T04:41:25.539Z,12.4
2018-06-30T04:42:24.989Z,12.4
2018-06-30T04:43:24.858Z,12.4
2018-06-30T04:44:24.809Z,12.4
2018-06-30T04:45:24.932Z,12.4
2018-06-30T04:46:25.099Z,13.4
2018-06-30T04:47:25.651Z,13.4
2018-06-30T04:48:24.780Z,13.3
2018-06-30T04:49:24.883Z,13.3
2018-06-30T04:50:29.791Z,13.3
2018-06-30T04:51:26.177Z,13.6
2018-06-30T04:52:29.349Z,13.6
2018-06-30T04:53:27.924Z,13.9
2018-06-30T04:54:39.371Z,13.9
2018-06-30T04:55:24.711Z,13.9
2018-06-30T04:56:24.817Z,14.4
2018-06-30T04:57:25.224Z,14.4
2018-06-30T04:58:24.927Z,14.4
2018-06-30T04:59:28.223Z,14.7
2018-06-30T05:00:24.732Z,14.7
2018-06-30T05:01:25.433Z,15.0
2018-06-30T05:02:24.738Z,15.0
2018-06-30T05:03:24.738Z,15.0
2018-06-30T05:04:25.375Z,15.2
2018-06-30T05:05:25.676Z,15.2
2018-06-30T05:06:25.533Z,15.2
2018-06-30T05:07:24.757Z,15.2
2018-06-30T05:08:26.044Z,15.2
2018-06-30T05:09:25.308Z,15.4
2018-06-30T05:10:24.870Z,15.4
2018-06-30T05:11:27.489Z,15.6
2018-06-30T05:12:27.704Z,15.6
2018-06-30T05:13:24.772Z,15.6
2018-06-30T05:14:24.647Z,16.1
2018-06-30T05:15:24.704Z,16.1
2018-06-30T05:16:34.447Z,16.2
2018-06-30T05:18:37.757Z,16.2
2018-06-30T05:19:27.161Z,16.3
2018-06-30T05:21:28.624Z,16.6
2018-06-30T05:22:24.657Z,16.6
2018-06-30T05:23:25.035Z,16.6
2018-06-30T05:24:24.725Z,16.6
2018-06-30T05:25:25.318Z,16.6
2018-06-30T05:26:24.759Z,16.6
2018-06-30T05:27:24.598Z,17.3
2018-06-30T05:28:24.624Z,17.3
2018-06-30T05:29:24.604Z,17.8
2018-06-30T05:30:24.677Z,17.8
2018-06-30T05:31:24.679Z,17.8
2018-06-30T05:32:30.680Z,18.3
2018-06-30T05:33:25.459Z,18.3
2018-06-30T05:34:29.746Z,18.4
2018-06-30T05:35:25.895Z,18.4
2018-06-30T05:36:41.798Z,18.4
2018-06-30T05:37:40.217Z,18.5
2018-06-30T05:38:26.389Z,18.5
2018-06-30T05:39:27.200Z,18.5
2018-06-30T05:40:25.839Z,18.5
2018-06-30T05:41:24.788Z,18.5
2018-06-30T05:42:24.637Z,19.2
2018-06-30T05:43:25.555Z,19.2
2018-06-30T05:44:24.758Z,19.3
2018-06-30T05:45:25.280Z,19.3
2018-06-30T05:46:27.150Z,19.3
2018-06-30T05:47:27.277Z,19.6
2018-06-30T05:48:25.382Z,19.6
2018-06-30T05:49:31.181Z,19.7
2018-06-30T05:50:29.278Z,19.7
2018-06-30T05:51:27.997Z,19.7
2018-06-30T05:53:34.231Z,19.8
2018-06-30T05:54:37.948Z,19.7
2018-06-30T05:56:36.373Z,19.7
2018-06-30T05:57:35.357Z,19.8
2018-06-30T05:58:33.807Z,19.8
2018-06-30T05:59:35.240Z,19.8
2018-06-30T06:00:31.138Z,19.8
2018-06-30T06:01:34.138Z,19.8
2018-06-30T06:02:29.824Z,20.1
2018-06-30T06:03:32.968Z,20.1
2018-06-30T06:04:26.623Z,20.1
2018-06-30T06:05:37.911Z,20.1
2018-06-30T06:06:35.808Z,20.1
2018-06-30T06:07:27.253Z,20.5
2018-06-30T06:08:25.927Z,20.5
2018-06-30T06:09:31.035Z,20.5
2018-06-30T06:10:24.892Z,20.5
2018-06-30T06:12:27.000Z,20.4
2018-06-30T06:15:43.349Z,20.8
2018-06-30T06:16:33.410Z,20.8
2018-06-30T06:17:48.023Z,20.7
2018-06-30T06:19:06.049Z,20.7
2018-06-30T06:19:56.488Z,20.7
2018-06-30T06:20:45.734Z,21.4
2018-06-30T06:22:36.454Z,21.6
2018-06-30T06:24:42.477Z,21.6
2018-06-30T06:25:39.017Z,21.9
2018-06-30T06:26:36.601Z,21.9
2018-06-30T06:27:30.030Z,21.9
2018-06-30T06:28:47.538Z,21.7
2018-06-30T06:29:45.587Z,21.7
2018-06-30T06:30:32.780Z,21.6
2018-06-30T06:31:36.388Z,21.6
2018-06-30T06:32:39.786Z,21.6
2018-06-30T06:33:38.300Z,21.9
2018-06-30T06:34:35.654Z,21.9
2018-06-30T06:35:40.025Z,21.9
2018-06-30T06:36:30.029Z,21.9
2018-06-30T06:38:31.754Z,22.0
2018-06-30T06:39:25.134Z,22.0
2018-06-30T06:40:25.681Z,22.0
2018-06-30T06:41:24.983Z,22.0
2018-06-30T06:42:25.048Z,22.0
2018-06-30T06:43:37.344Z,22.0
2018-06-30T06:44:25.060Z,22.0
2018-06-30T06:45:25.159Z,22.0
2018-06-30T06:46:24.898Z,22.0
2018-06-30T06:47:25.473Z,22.0
2018-06-30T06:48:25.800Z,22.2
2018-06-30T06:50:25.638Z,22.2
2018-06-30T06:51:26.425Z,22.2
2018-06-30T06:52:25.089Z,22.2
2018-06-30T06:53:25.623Z,21.9
2018-06-30T06:54:25.009Z,21.9
2018-06-30T06:55:25.076Z,22.0
2018-06-30T06:56:25.188Z,22.0
2018-06-30T06:57:25.068Z,22.0
2018-06-30T06:58:35.080Z,22.0
2018-06-30T06:59:25.597Z,22.0
2018-06-30T07:00:24.968Z,22.0
2018-06-30T07:01:25.206Z,22.5
2018-06-30T07:02:25.093Z,22.5
2018-06-30T07:03:25.024Z,22.2
2018-06-30T07:04:29.083Z,22.2
2018-06-30T07:05:26.456Z,22.2
2018-06-30T07:06:25.047Z,22.6
2018-06-30T07:07:25.753Z,22.6
2018-06-30T07:08:53.314Z,22.7
2018-06-30T07:09:25.099Z,22.7
2018-06-30T07:10:25.263Z,22.7
2018-06-30T07:11:25.737Z,22.6
2018-06-30T07:12:25.723Z,22.6
2018-06-30T07:13:25.045Z,22.7
2018-06-30T07:14:25.165Z,22.7
2018-06-30T07:15:25.054Z,22.7
2018-06-30T07:16:25.084Z,22.3
2018-06-30T07:17:25.075Z,22.3
2018-06-30T07:18:25.220Z,22.4
2018-06-30T07:19:25.262Z,22.4
2018-06-30T07:20:29.757Z,22.4
2018-06-30T07:22:02.387Z,22.2
2018-06-30T07:22:29.843Z,22.2
2018-06-30T07:24:02.645Z,22.3
2018-06-30T07:24:26.808Z,22.3
2018-06-30T07:25:25.062Z,22.3
2018-06-30T07:27:24.968Z,22.3
2018-06-30T07:28:25.725Z,22.3
2018-06-30T07:29:26.080Z,23.0
2018-06-30T07:30:24.958Z,23.0
2018-06-30T07:31:25.572Z,23.2
2018-06-30T07:32:25.260Z,23.2
2018-06-30T07:33:25.593Z,23.2
2018-06-30T07:34:25.066Z,23.0
2018-06-30T07:35:25.087Z,23.0
2018-06-30T07:36:25.016Z,23.1
2018-06-30T07:37:25.742Z,23.1
2018-06-30T07:38:53.528Z,23.1
2018-06-30T07:39:24.977Z,23.3
2018-06-30T07:40:25.056Z,23.3
2018-06-30T07:41:25.088Z,23.6
2018-06-30T07:42:25.747Z,23.6
2018-06-30T07:43:25.043Z,23.6
2018-06-30T07:44:25.246Z,23.5
2018-06-30T07:45:25.764Z,23.5
2018-06-30T07:46:25.099Z,23.7
2018-06-30T07:47:25.078Z,23.7
2018-06-30T07:48:25.668Z,23.7
2018-06-30T07:51:12.919Z,23.7
2018-06-30T07:51:37.749Z,23.7
2018-06-30T07:52:37.683Z,23.7
2018-06-30T07:53:37.774Z,23.7
2018-06-30T07:54:37.803Z,23.9
2018-06-30T07:55:37.797Z,23.9
2018-06-30T07:56:37.824Z,23.9
2018-06-30T07:57:37.839Z,23.9
2018-06-30T07:58:37.847Z,23.9
2018-06-30T07:59:38.463Z,23.8
2018-06-30T08:00:39.937Z,23.8
2018-06-30T08:01:37.746Z,23.8
2018-06-30T08:02:37.722Z,23.8
2018-06-30T08:03:38.746Z,23.8
2018-06-30T08:04:38.445Z,24.1
2018-06-30T08:05:37.820Z,24.1
2018-06-30T08:06:37.909Z,24.1
2018-06-30T08:07:37.709Z,24.1
2018-06-30T08:08:38.882Z,24.1
2018-06-30T08:09:40.007Z,23.6
2018-06-30T08:10:37.822Z,23.6
2018-06-30T08:11:37.864Z,23.6
2018-06-30T08:12:37.876Z,23.7
2018-06-30T08:13:37.936Z,23.7
2018-06-30T08:14:37.875Z,24.3
2018-06-30T08:15:37.912Z,24.3
2018-06-30T08:16:39.317Z,24.3
2018-06-30T08:17:37.827Z,24.5
2018-06-30T08:18:37.922Z,24.5
2018-06-30T08:19:37.826Z,24.6
2018-06-30T08:20:38.942Z,24.6
2018-06-30T08:21:37.905Z,24.6
2018-06-30T08:22:38.458Z,24.8
2018-06-30T08:23:38.354Z,24.8
2018-06-30T08:24:38.421Z,25.0
2018-06-30T08:25:38.580Z,25.0
2018-06-30T08:26:37.872Z,25.0
2018-06-30T08:27:37.908Z,24.7
2018-06-30T08:28:37.857Z,24.7
2018-06-30T08:29:37.987Z,24.9
2018-06-30T08:30:38.806Z,24.9
2018-06-30T08:31:37.878Z,24.9
2018-06-30T08:32:37.847Z,25.1
2018-06-30T08:33:37.835Z,25.1
2018-06-30T08:34:38.953Z,25.1
2018-06-30T08:35:37.836Z,25.1
2018-06-30T08:36:38.744Z,25.1
2018-06-30T08:37:37.939Z,24.9
2018-06-30T08:38:37.994Z,24.9
2018-06-30T08:39:38.020Z,25.0
2018-06-30T08:40:38.590Z,25.0
2018-06-30T08:41:38.041Z,25.0
2018-06-30T08:42:37.982Z,24.8
2018-06-30T08:43:38.995Z,24.8
2018-06-30T08:44:38.007Z,24.8
2018-06-30T08:45:37.884Z,24.7
2018-06-30T08:46:37.829Z,24.7
2018-06-30T08:47:37.893Z,24.7
2018-06-30T08:48:38.561Z,24.7
2018-06-30T08:49:37.965Z,24.7
2018-06-30T08:50:38.018Z,25.0
2018-06-30T08:51:38.055Z,25.0
2018-06-30T08:52:37.993Z,25.0
2018-06-30T08:53:37.950Z,25.0
2018-06-30T08:54:38.088Z,25.0
2018-06-30T08:55:38.104Z,25.1
2018-06-30T08:56:37.933Z,25.1
2018-06-30T08:57:37.917Z,25.0
2018-06-30T08:58:38.009Z,25.0
2018-06-30T08:59:37.935Z,25.0
2018-06-30T09:00:38.086Z,24.8
2018-06-30T09:01:37.851Z,24.8
2018-06-30T09:02:37.850Z,25.0
2018-06-30T09:03:38.604Z,25.0
2018-06-30T09:04:38.044Z,25.0
2018-06-30T09:05:37.885Z,25.0
2018-06-30T09:06:37.978Z,25.0
2018-06-30T09:07:37.902Z,25.4
2018-06-30T09:08:37.895Z,25.4
2018-06-30T09:09:37.902Z,25.4
2018-06-30T09:10:37.976Z,25.3
2018-06-30T09:11:38.041Z,25.3
2018-06-30T09:12:37.844Z,25.3
2018-06-30T09:13:37.925Z,25.2
2018-06-30T09:14:37.952Z,25.2
2018-06-30T09:15:37.898Z,25.1
2018-06-30T09:16:37.904Z,25.1
2018-06-30T09:17:37.941Z,25.1
2018-06-30T09:18:37.866Z,25.6
2018-06-30T09:19:38.618Z,25.6
2018-06-30T09:20:37.847Z,25.6
2018-06-30T09:21:37.872Z,25.6
2018-06-30T09:22:37.911Z,25.6
2018-06-30T09:23:37.895Z,25.4
2018-06-30T09:24:37.828Z,25.4
2018-06-30T09:25:37.866Z,25.6
2018-06-30T09:26:37.906Z,25.6
2018-06-30T09:27:37.942Z,25.6
2018-06-30T09:28:39.596Z,25.6
2018-06-30T09:29:37.951Z,25.6
2018-06-30T09:30:38.017Z,26.3
2018-06-30T09:31:37.915Z,26.3
2018-06-30T09:32:38.657Z,26.3
2018-06-30T09:34:14.674Z,26.3
2018-06-30T09:34:37.953Z,26.3
2018-06-30T09:35:37.930Z,26.0
2018-06-30T09:36:37.856Z,26.0
2018-06-30T09:37:37.865Z,26.0
2018-06-30T09:38:37.967Z,26.5
2018-06-30T09:39:37.879Z,26.5
2018-06-30T09:40:37.927Z,26.2
2018-06-30T09:41:37.972Z,26.2
2018-06-30T09:42:37.885Z,26.2
2018-06-30T09:43:38.657Z,25.8
2018-06-30T09:44:39.197Z,25.8
2018-06-30T09:45:38.007Z,25.8
2018-06-30T09:46:38.048Z,25.7
2018-06-30T09:47:37.963Z,25.7
2018-06-30T09:48:37.995Z,26.0
2018-06-30T09:49:37.969Z,26.0
2018-06-30T09:50:37.965Z,26.0
2018-06-30T09:51:38.064Z,25.9
2018-06-30T09:52:37.916Z,25.9
2018-06-30T09:53:38.012Z,25.9
2018-06-30T09:54:48.239Z,25.9
2018-06-30T09:55:37.922Z,25.9
2018-06-30T09:56:37.976Z,26.2
2018-06-30T09:57:38.417Z,26.2
2018-06-30T09:58:37.981Z,26.0
2018-06-30T09:59:38.562Z,26.0
2018-06-30T10:00:39.048Z,26.0
2018-06-30T10:01:37.925Z,26.2
2018-06-30T10:02:37.941Z,26.2
2018-06-30T10:03:37.957Z,26.4
2018-06-30T10:05:38.703Z,26.4
2018-06-30T10:06:39.711Z,26.3
2018-06-30T10:07:38.593Z,26.3
2018-06-30T10:08:37.970Z,26.3
2018-06-30T10:09:38.607Z,26.3
2018-06-30T10:10:38.023Z,26.3
2018-06-30T10:11:38.104Z,26.4
2018-06-30T10:12:38.042Z,26.4
2018-06-30T10:13:38.091Z,26.4
2018-06-30T10:14:37.923Z,26.4
2018-06-30T10:15:38.021Z,26.4
2018-06-30T10:16:37.975Z,26.7
2018-06-30T10:17:38.065Z,26.7
2018-06-30T10:18:38.487Z,26.7
2018-06-30T10:19:38.061Z,26.2
2018-06-30T10:20:38.028Z,26.2
2018-06-30T10:21:38.688Z,26.1
2018-06-30T10:22:38.035Z,26.1
2018-06-30T10:23:38.823Z,26.1
2018-06-30T10:24:38.029Z,26.5
2018-06-30T10:25:38.097Z,26.5
2018-06-30T10:26:38.105Z,26.4
2018-06-30T10:27:40.019Z,26.4
2018-06-30T10:28:38.111Z,26.4
2018-06-30T10:29:37.946Z,26.2
2018-06-30T10:30:38.076Z,26.2
2018-06-30T10:31:38.052Z,25.9
2018-06-30T10:32:38.145Z,25.9
2018-06-30T10:33:38.034Z,25.9
2018-06-30T10:34:39.398Z,25.8
2018-06-30T10:35:39.053Z,25.8
2018-06-30T10:36:38.010Z,26.3
2018-06-30T10:37:38.134Z,26.3
2018-06-30T10:39:38.005Z,25.4
2018-06-30T10:40:38.015Z,25.4
2018-06-30T10:41:38.196Z,25.5
2018-06-30T10:42:38.085Z,25.5
2018-06-30T10:43:38.109Z,25.5
2018-06-30T10:44:38.108Z,26.0
2018-06-30T10:45:38.141Z,26.0
2018-06-30T10:46:39.118Z,26.0
2018-06-30T10:47:38.063Z,26.8
2018-06-30T10:48:38.041Z,26.8
2018-06-30T10:49:38.072Z,26.8
2018-06-30T10:50:38.130Z,26.8
2018-06-30T10:51:38.055Z,26.8
2018-06-30T10:52:38.058Z,26.4
2018-06-30T10:53:38.110Z,26.4
2018-06-30T10:54:38.020Z,26.6
2018-06-30T10:55:38.063Z,26.6
2018-06-30T10:56:38.198Z,26.6
2018-06-30T10:57:38.589Z,26.3
2018-06-30T10:58:38.847Z,26.3
2018-06-30T10:59:38.179Z,26.2
2018-06-30T11:00:39.387Z,26.2
2018-06-30T11:01:48.290Z,26.2
2018-06-30T11:02:38.170Z,26.1
2018-06-30T11:03:38.182Z,26.1
2018-06-30T11:04:38.136Z,25.9
2018-06-30T11:05:38.100Z,25.9
2018-06-30T11:06:38.455Z,25.9
2018-06-30T11:07:38.145Z,26.6
2018-06-30T11:08:38.335Z,26.6
2018-06-30T11:09:38.246Z,27.0
2018-06-30T11:10:38.497Z,27.0
2018-06-30T11:11:38.183Z,27.0
2018-06-30T11:12:38.198Z,26.9
2018-06-30T11:13:38.274Z,26.9
2018-06-30T11:14:39.014Z,26.9
2018-06-30T11:15:39.833Z,27.2
2018-06-30T11:16:38.213Z,27.2
2018-06-30T11:17:38.979Z,27.4
2018-06-30T11:18:38.156Z,27.4
2018-06-30T11:19:38.089Z,27.4
2018-06-30T11:20:38.043Z,27.2
2018-06-30T11:21:38.090Z,27.2
2018-06-30T11:22:38.108Z,27.3
2018-06-30T11:23:38.147Z,27.3
2018-06-30T11:24:38.138Z,27.3
2018-06-30T11:25:38.093Z,27.2
2018-06-30T11:26:38.167Z,27.2
2018-06-30T11:27:38.095Z,26.9
2018-06-30T11:28:38.780Z,26.9
2018-06-30T11:29:38.239Z,26.9
2018-06-30T11:30:39.063Z,26.9
2018-06-30T11:31:38.817Z,26.9
2018-06-30T11:32:38.199Z,27.2
2018-06-30T11:33:38.073Z,27.2
2018-06-30T11:34:38.797Z,27.2
2018-06-30T11:35:38.155Z,27.5
2018-06-30T11:36:38.161Z,27.5
2018-06-30T11:37:38.825Z,27.8
2018-06-30T11:38:38.798Z,27.8
2018-06-30T11:39:38.088Z,27.8
2018-06-30T11:40:38.216Z,27.6
2018-06-30T11:41:38.193Z,27.6
2018-06-30T11:42:38.291Z,27.2
2018-06-30T11:43:38.186Z,27.2
2018-06-30T11:44:38.878Z,27.2
2018-06-30T11:45:38.147Z,26.7
2018-06-30T11:46:38.222Z,26.7
2018-06-30T11:47:39.339Z,26.7
2018-06-30T11:49:38.276Z,26.2
2018-06-30T11:50:38.169Z,26.4
2018-06-30T11:51:38.162Z,26.4
2018-06-30T11:52:38.268Z,26.4
2018-06-30T11:53:38.292Z,26.3
2018-06-30T11:54:38.473Z,26.3
2018-06-30T11:55:38.360Z,26.7
2018-06-30T11:56:38.468Z,26.7
2018-06-30T11:57:39.077Z,26.7
2018-06-30T11:58:38.286Z,27.1
2018-06-30T11:59:38.464Z,27.1
2018-06-30T12:00:38.956Z,27.2
2018-06-30T12:01:38.470Z,27.2
2018-06-30T12:02:38.348Z,27.2
2018-06-30T12:03:38.325Z,27.7
2018-06-30T12:04:38.327Z,27.7
2018-06-30T12:06:39.720Z,28.1
2018-06-30T12:07:38.795Z,28.1
2018-06-30T12:08:38.230Z,27.5
2018-06-30T12:09:38.307Z,27.5
2018-06-30T12:10:38.504Z,27.5
2018-06-30T12:11:39.794Z,27.5
2018-06-30T12:12:38.673Z,27.5
2018-06-30T12:13:38.850Z,26.4
2018-06-30T12:14:38.283Z,26.4
2018-06-30T12:15:38.978Z,26.4
2018-06-30T12:16:39.036Z,26.8
2018-06-30T12:18:02.134Z,26.8
2018-06-30T12:18:52.621Z,26.6
2018-06-30T12:19:38.287Z,26.6
2018-06-30T12:20:38.240Z,26.6
2018-06-30T12:21:39.181Z,27.0
2018-06-30T12:22:39.081Z,27.0
2018-06-30T12:23:39.033Z,26.8
2018-06-30T12:24:39.107Z,26.8
2018-06-30T12:33:55.792Z,26.8
2018-06-30T12:34:56.957Z,27.3
2018-06-30T12:35:56.933Z,27.3
2018-06-30T12:36:56.935Z,27.3
2018-06-30T12:37:57.002Z,27.3
2018-06-30T12:38:57.923Z,27.7
2018-06-30T12:39:57.572Z,27.7
2018-06-30T12:40:56.898Z,27.7
2018-06-30T12:41:56.929Z,27.3
2018-06-30T12:43:12.024Z,27.3
2018-06-30T12:44:08.789Z,27.2
2018-06-30T12:44:57.598Z,27.2
2018-06-30T12:45:59.863Z,27.2
2018-06-30T12:46:56.908Z,27.2
2018-06-30T12:47:56.900Z,27.2
2018-06-30T12:48:56.890Z,27.0
2018-06-30T12:49:58.266Z,27.0
2018-06-30T12:50:56.867Z,27.0
2018-06-30T12:51:56.930Z,27.0
2018-06-30T12:52:57.521Z,27.0
2018-06-30T12:54:00.236Z,26.6
2018-06-30T12:54:57.054Z,26.6
2018-06-30T12:55:56.908Z,26.6
2018-06-30T12:57:13.569Z,26.6
2018-06-30T12:57:56.904Z,26.6
2018-06-30T12:58:56.892Z,27.2
2018-06-30T12:59:56.901Z,27.2
2018-06-30T13:01:07.305Z,27.2
2018-06-30T13:02:31.160Z,26.3
2018-06-30T13:02:56.956Z,26.3
2018-06-30T13:03:56.973Z,26.3
2018-06-30T13:04:58.939Z,26.4
2018-06-30T13:05:57.519Z,26.4
2018-06-30T13:06:56.873Z,27.1
2018-06-30T13:07:56.896Z,27.1
2018-06-30T13:08:59.221Z,27.1
2018-06-30T13:10:00.651Z,27.4
2018-06-30T13:10:56.943Z,27.4
2018-06-30T13:11:57.021Z,26.6
2018-06-30T13:12:56.922Z,26.6
2018-06-30T13:13:57.036Z,26.6
2018-06-30T13:14:57.489Z,26.8
2018-06-30T13:16:08.412Z,26.8
2018-06-30T13:16:57.090Z,26.8
2018-06-30T13:17:57.586Z,26.8
2018-06-30T13:20:05.964Z,27.2
2018-06-30T13:21:57.165Z,27.2
2018-06-30T13:22:10.448Z,27.2
2018-06-30T13:23:11.567Z,27.7
2018-06-30T13:24:11.460Z,27.7
2018-06-30T13:25:11.464Z,28.2
2018-06-30T13:26:11.445Z,28.2
2018-06-30T13:27:11.538Z,28.5
2018-06-30T13:28:11.555Z,28.5
2018-06-30T13:30:24.318Z,28.6
2018-06-30T13:31:24.347Z,28.6
2018-06-30T13:32:24.250Z,28.6
2018-06-30T13:33:24.975Z,28.6
2018-06-30T13:34:24.438Z,28.6
2018-06-30T13:36:24.387Z,28.0
2018-06-30T13:37:29.389Z,27.3
2018-06-30T13:39:27.031Z,27.3
2018-06-30T13:41:30.612Z,27.1
2018-06-30T13:41:42.332Z,27.1
2018-06-30T13:42:46.404Z,26.8
2018-06-30T13:43:44.993Z,26.8
2018-06-30T13:44:56.094Z,26.9
2018-06-30T13:46:25.502Z,26.9
2018-06-30T13:46:39.884Z,26.9
2018-06-30T13:47:41.232Z,27.5
2018-06-30T13:48:39.868Z,27.5
2018-06-30T13:49:40.361Z,27.5
2018-06-30T13:50:39.855Z,27.2
2018-06-30T13:51:39.887Z,27.2
2018-06-30T13:52:39.858Z,27.4
2018-06-30T13:53:40.486Z,27.4
2018-06-30T13:54:39.852Z,27.4
2018-06-30T13:55:39.616Z,27.5
2018-06-30T13:56:39.634Z,27.5
2018-06-30T13:57:43.982Z,27.4
2018-06-30T13:58:42.016Z,27.4
2018-06-30T13:59:49.922Z,27.4
2018-06-30T14:00:55.563Z,27.4
2018-06-30T14:02:53.277Z,28.0
2018-06-30T14:03:41.932Z,28.0
2018-06-30T14:04:41.092Z,28.0
2018-06-30T14:05:43.371Z,27.7
2018-06-30T14:06:39.909Z,27.7
2018-06-30T14:07:50.299Z,27.1
2018-06-30T14:09:54.386Z,27.1
2018-06-30T14:10:54.106Z,26.6
2018-06-30T14:11:40.612Z,26.6
2018-06-30T14:12:47.708Z,26.6
2018-06-30T14:13:56.623Z,26.6